createdAt,value
2024-05-09T00:00:29.781Z,46.50
2024-05-09T00:01:34.672Z,46.50
2024-05-09T00:02:37.810Z,46.40
2024-05-09T00:03:44.248Z,46.40
2024-05-09T00:04:52.638Z,46.40
2024-05-09T00:05:55.825Z,46.40
2024-05-09T00:06:58.846Z,46.40
2024-05-09T00:08:02.052Z,46.40
2024-05-09T00:09:13.585Z,46.40
2024-05-09T00:10:25.511Z,46.40
2024-05-09T00:11:39.002Z,46.40
2024-05-09T00:12:45.044Z,46.30
2024-05-09T00:13:50.913Z,46.40
2024-05-09T00:14:54.161Z,46.30
2024-05-09T00:16:02.568Z,46.30
2024-05-09T00:17:06.563Z,46.30
2024-05-09T00:18:09.949Z,46.40
2024-05-09T00:19:14.596Z,46.30
2024-05-09T00:20:24.170Z,46.30
2024-05-09T00:21:31.430Z,46.30
2024-05-09T00:22:37.843Z,46.30
2024-05-09T00:23:41.642Z,46.30
2024-05-09T00:24:46.910Z,46.30
2024-05-09T00:25:54.218Z,46.30
2024-05-09T00:26:58.436Z,46.30
2024-05-09T00:28:01.528Z,46.30
2024-05-09T00:29:04.581Z,46.30
2024-05-09T00:30:14.269Z,46.30
2024-05-09T00:31:23.106Z,46.30
2024-05-09T00:32:28.327Z,46.30
2024-05-09T00:33:31.634Z,46.30
2024-05-09T00:34:34.817Z,46.30
2024-05-09T00:35:38.398Z,46.30
2024-05-09T00:36:41.763Z,46.30
2024-05-09T00:37:44.757Z,46.30
2024-05-09T00:38:56.616Z,46.30
2024-05-09T00:40:01.974Z,46.20
2024-05-09T00:41:05.152Z,46.20
2024-05-09T00:42:08.223Z,46.20
2024-05-09T00:43:14.094Z,46.20
2024-05-09T00:44:18.107Z,46.20
2024-05-09T00:45:29.645Z,46.70
2024-05-09T00:46:32.669Z,46.20
2024-05-09T00:47:36.278Z,46.10
2024-05-09T00:48:41.357Z,46.20
2024-05-09T00:49:44.816Z,46.10
2024-05-09T00:50:48.631Z,46.00
2024-05-09T00:51:54.510Z,46.00
2024-05-09T00:52:57.828Z,46.00
2024-05-09T00:54:00.939Z,45.90
2024-05-09T00:55:04.084Z,45.80
2024-05-09T00:56:09.454Z,45.80
2024-05-09T00:57:12.670Z,45.80
2024-05-09T00:58:18.684Z,45.90
2024-05-09T00:59:26.282Z,45.90
2024-05-09T01:00:36.041Z,45.80
2024-05-09T01:01:44.644Z,45.80
2024-05-09T01:02:48.534Z,45.80
2024-05-09T01:03:51.991Z,45.90
2024-05-09T01:04:56.751Z,45.90
2024-05-09T01:06:00.193Z,45.90
2024-05-09T01:07:06.264Z,45.80
2024-05-09T01:08:10.249Z,45.80
2024-05-09T01:09:13.752Z,45.80
2024-05-09T01:10:21.294Z,46.10
2024-05-09T01:11:37.036Z,45.90
2024-05-09T01:12:40.246Z,45.90
2024-05-09T01:13:44.976Z,45.90
2024-05-09T01:14:48.416Z,45.90
2024-05-09T01:15:54.140Z,45.90
2024-05-09T01:16:57.417Z,45.90
2024-05-09T01:18:10.727Z,45.90
2024-05-09T01:19:28.605Z,45.90
2024-05-09T01:20:40.832Z,45.80
2024-05-09T01:21:46.595Z,45.80
2024-05-09T01:22:55.447Z,45.70
2024-05-09T01:23:58.449Z,45.70
2024-05-09T01:25:01.520Z,45.60
2024-05-09T01:26:04.711Z,45.60
2024-05-09T01:27:07.966Z,45.60
2024-05-09T01:28:11.126Z,45.70
2024-05-09T01:29:14.290Z,45.70
2024-05-09T01:30:21.318Z,45.70
2024-05-09T01:31:30.810Z,45.60
2024-05-09T01:32:34.010Z,45.60
2024-05-09T01:33:37.484Z,45.60
2024-05-09T01:34:43.603Z,45.40
2024-05-09T01:35:46.631Z,45.40
2024-05-09T01:36:50.056Z,45.30
2024-05-09T01:37:53.459Z,45.40
2024-05-09T01:38:57.175Z,45.40
2024-05-09T01:40:00.322Z,45.50
2024-05-09T01:41:03.397Z,45.40
2024-05-09T01:42:06.556Z,45.30
2024-05-09T01:43:11.145Z,45.30
2024-05-09T01:44:15.190Z,45.30
2024-05-09T01:45:18.574Z,45.20
2024-05-09T01:46:21.550Z,45.20
2024-05-09T01:47:24.721Z,45.20
2024-05-09T01:48:27.999Z,45.20
2024-05-09T01:49:35.139Z,45.20
2024-05-09T01:50:41.500Z,45.20
2024-05-09T01:51:46.352Z,45.20
2024-05-09T01:52:49.520Z,45.20
2024-05-09T01:53:55.180Z,45.20
2024-05-09T01:55:01.986Z,45.10
2024-05-09T01:56:06.774Z,45.20
2024-05-09T01:57:14.535Z,45.20
2024-05-09T01:58:17.586Z,45.10
2024-05-09T01:59:21.821Z,45.20
2024-05-09T02:00:36.816Z,45.30
2024-05-09T02:01:56.282Z,45.30
2024-05-09T02:03:01.299Z,45.40
2024-05-09T02:04:04.728Z,45.20
2024-05-09T02:05:10.918Z,45.20
2024-05-09T02:06:14.128Z,45.10
2024-05-09T02:07:17.169Z,45.30
2024-05-09T02:08:24.010Z,45.40
2024-05-09T02:09:27.017Z,45.30
2024-05-09T02:10:32.770Z,45.50
2024-05-09T02:11:48.049Z,45.70
2024-05-09T02:12:53.671Z,45.60
2024-05-09T02:13:56.940Z,45.60
2024-05-09T02:15:00.849Z,45.70
2024-05-09T02:16:04.132Z,45.70
2024-05-09T02:17:07.286Z,45.70
2024-05-09T02:18:11.110Z,45.70
2024-05-09T02:19:14.933Z,45.70
2024-05-09T02:20:29.615Z,45.70
2024-05-09T02:21:37.414Z,45.60
2024-05-09T02:22:40.495Z,45.60
2024-05-09T02:23:43.554Z,45.60
2024-05-09T02:24:47.723Z,45.50
2024-05-09T02:25:53.819Z,45.50
2024-05-09T02:26:57.138Z,45.40
2024-05-09T02:28:00.309Z,45.30
2024-05-09T02:29:03.498Z,45.30
2024-05-09T02:30:18.374Z,45.20
2024-05-09T02:31:27.670Z,45.10
2024-05-09T02:32:33.772Z,45.10
2024-05-09T02:33:37.445Z,45.00
2024-05-09T02:34:40.810Z,45.50
2024-05-09T02:35:47.055Z,45.20
2024-05-09T02:36:50.128Z,45.00
2024-05-09T02:37:53.750Z,45.10
2024-05-09T02:38:56.835Z,45.00
2024-05-09T02:40:05.643Z,45.00
2024-05-09T02:41:09.481Z,45.10
2024-05-09T02:42:12.590Z,45.00
2024-05-09T02:43:15.762Z,45.00
2024-05-09T02:44:24.866Z,45.00
2024-05-09T02:45:28.010Z,45.10
2024-05-09T02:46:31.160Z,45.00
2024-05-09T02:47:37.017Z,45.10
2024-05-09T02:48:42.863Z,45.00
2024-05-09T02:49:45.962Z,45.00
2024-05-09T02:50:49.036Z,45.00
2024-05-09T02:51:55.155Z,45.00
2024-05-09T02:53:00.444Z,45.00
2024-05-09T02:54:04.082Z,45.00
2024-05-09T02:55:07.158Z,45.00
2024-05-09T02:56:10.283Z,45.00
2024-05-09T02:57:13.419Z,45.00
2024-05-09T02:58:16.516Z,44.90
2024-05-09T02:59:19.545Z,44.80
2024-05-09T03:00:29.468Z,44.80
2024-05-09T03:01:43.326Z,44.80
2024-05-09T03:02:46.578Z,45.30
2024-05-09T03:03:50.989Z,44.80
2024-05-09T03:04:54.429Z,44.70
2024-05-09T03:05:57.626Z,45.20
2024-05-09T03:07:00.676Z,44.70
2024-05-09T03:08:04.145Z,44.70
2024-05-09T03:12:29.939Z,45.20
2024-05-09T03:13:35.344Z,44.80
2024-05-09T03:14:38.349Z,44.80
2024-05-09T03:15:43.082Z,44.80
2024-05-09T03:16:56.494Z,44.80
2024-05-09T03:18:01.190Z,44.90
2024-05-09T03:19:05.844Z,45.00
2024-05-09T03:20:20.508Z,45.10
2024-05-09T03:21:27.224Z,45.70
2024-05-09T03:22:30.445Z,46.10
2024-05-09T03:23:33.650Z,46.30
2024-05-09T03:24:36.932Z,46.50
2024-05-09T03:25:39.943Z,46.70
2024-05-09T03:26:43.213Z,46.70
2024-05-09T03:27:47.049Z,46.80
2024-05-09T03:28:50.591Z,46.80
2024-05-09T03:29:56.380Z,46.80
2024-05-09T03:31:01.569Z,46.70
2024-05-09T03:32:05.056Z,46.60
2024-05-09T03:33:16.782Z,46.60
2024-05-09T03:34:20.543Z,46.60
2024-05-09T03:35:23.778Z,46.60
2024-05-09T03:36:27.095Z,46.50
2024-05-09T03:37:30.163Z,46.40
2024-05-09T03:38:41.316Z,46.40
2024-05-09T03:39:44.464Z,46.50
2024-05-09T03:40:49.507Z,46.40
2024-05-09T03:41:58.765Z,46.30
2024-05-09T03:43:04.308Z,46.30
2024-05-09T03:44:10.744Z,46.20
2024-05-09T03:45:19.241Z,46.20
2024-05-09T03:46:22.995Z,46.20
2024-05-09T03:47:29.284Z,46.10
2024-05-09T03:48:36.157Z,46.10
2024-05-09T03:49:41.676Z,46.10
2024-05-09T03:50:47.658Z,46.10
2024-05-09T03:51:53.647Z,46.10
2024-05-09T03:52:56.735Z,46.00
2024-05-09T03:54:01.078Z,46.00
2024-05-09T03:55:07.685Z,46.10
2024-05-09T03:56:22.804Z,46.00
2024-05-09T03:57:25.790Z,46.00
2024-05-09T03:58:31.988Z,46.00
2024-05-09T03:59:46.698Z,46.00
2024-05-09T04:00:49.897Z,46.00
2024-05-09T04:01:53.276Z,46.00
2024-05-09T04:02:56.576Z,46.00
2024-05-09T04:04:00.050Z,46.00
2024-05-09T04:05:06.161Z,45.90
2024-05-09T04:06:09.268Z,45.90
2024-05-09T04:07:16.668Z,45.90
2024-05-09T04:08:20.901Z,45.90
2024-05-09T04:09:24.179Z,46.00
2024-05-09T04:10:33.667Z,45.90
2024-05-09T04:11:38.527Z,45.90
2024-05-09T04:12:41.558Z,45.90
2024-05-09T04:13:44.653Z,45.90
2024-05-09T04:14:47.723Z,46.00
2024-05-09T04:15:50.905Z,46.00
2024-05-09T04:16:54.845Z,45.90
2024-05-09T04:17:58.032Z,45.90
2024-05-09T04:19:01.499Z,45.90
2024-05-09T04:20:06.504Z,45.90
2024-05-09T04:21:14.241Z,46.40
2024-05-09T04:22:17.355Z,45.90
2024-05-09T04:23:20.838Z,46.40
2024-05-09T04:24:24.190Z,45.90
2024-05-09T04:25:27.353Z,45.90
2024-05-09T04:26:31.623Z,46.00
2024-05-09T04:27:34.869Z,45.90
2024-05-09T04:28:37.942Z,45.90
2024-05-09T04:29:41.320Z,46.00
2024-05-09T04:30:44.357Z,45.90
2024-05-09T04:31:47.687Z,46.00
2024-05-09T04:32:51.268Z,45.90
2024-05-09T04:33:54.536Z,46.00
2024-05-09T04:34:57.719Z,46.00
2024-05-09T04:36:03.460Z,46.00
2024-05-09T04:37:07.202Z,46.00
2024-05-09T04:38:10.388Z,46.00
2024-05-09T04:39:17.281Z,46.00
2024-05-09T04:40:28.130Z,46.00
2024-05-09T04:41:36.476Z,45.90
2024-05-09T04:42:41.457Z,46.00
2024-05-09T04:43:44.586Z,45.90
2024-05-09T04:44:48.450Z,45.90
2024-05-09T04:45:54.400Z,46.00
2024-05-09T04:46:57.485Z,45.90
2024-05-09T04:48:01.575Z,45.90
2024-05-09T04:49:05.166Z,46.00
2024-05-09T04:50:11.584Z,45.90
2024-05-09T04:51:17.607Z,45.90
2024-05-09T04:52:20.901Z,45.90
2024-05-09T04:53:23.980Z,45.90
2024-05-09T04:54:34.202Z,45.90
2024-05-09T04:55:40.727Z,46.00
2024-05-09T04:56:43.978Z,45.90
2024-05-09T04:57:47.289Z,45.90
2024-05-09T04:58:52.095Z,46.00
2024-05-09T04:59:55.800Z,46.00
2024-05-09T05:00:58.859Z,46.00
2024-05-09T05:02:02.122Z,46.00
2024-05-09T05:03:10.574Z,46.00
2024-05-09T05:04:19.331Z,46.00
2024-05-09T05:05:22.454Z,46.00
2024-05-09T05:06:25.564Z,45.90
2024-05-09T05:07:28.788Z,46.00
2024-05-09T05:08:32.033Z,45.90
2024-05-09T05:09:36.233Z,45.90
2024-05-09T05:10:42.009Z,46.00
2024-05-09T05:11:45.184Z,46.00
2024-05-09T05:13:06.867Z,46.00
2024-05-09T05:14:09.925Z,46.00
2024-05-09T05:15:13.142Z,46.00
2024-05-09T05:16:17.202Z,46.00
2024-05-09T05:17:20.397Z,46.00
2024-05-09T05:18:24.498Z,46.00
2024-05-09T05:19:28.028Z,45.90
2024-05-09T05:20:33.756Z,46.40
2024-05-09T05:21:37.320Z,46.00
2024-05-09T05:22:43.134Z,46.00
2024-05-09T05:23:46.234Z,46.00
2024-05-09T05:24:49.430Z,46.00
2024-05-09T05:25:54.286Z,46.00
2024-05-09T05:26:57.789Z,46.00
2024-05-09T05:28:00.834Z,46.00
2024-05-09T05:29:03.946Z,46.00
2024-05-09T05:30:12.028Z,46.00
2024-05-09T05:31:20.751Z,46.00
2024-05-09T05:32:23.968Z,46.00
2024-05-09T05:33:27.324Z,46.00
2024-05-09T05:34:31.419Z,46.00
2024-05-09T05:35:36.850Z,46.00
2024-05-09T05:36:40.087Z,46.00
2024-05-09T05:37:43.529Z,46.00
2024-05-09T05:38:46.813Z,46.00
2024-05-09T05:39:52.094Z,46.00
2024-05-09T05:40:56.067Z,46.00
2024-05-09T05:41:59.343Z,46.10
2024-05-09T05:43:03.179Z,46.10
2024-05-09T05:44:07.725Z,46.00
2024-05-09T05:45:10.724Z,46.10
2024-05-09T05:46:13.809Z,46.20
2024-05-09T05:47:16.991Z,46.10
2024-05-09T05:48:22.456Z,46.10
2024-05-09T05:49:25.559Z,46.10
2024-05-09T05:50:35.469Z,46.20
2024-05-09T05:51:41.708Z,46.10
2024-05-09T05:52:44.767Z,46.10
2024-05-09T05:53:48.066Z,46.00
2024-05-09T05:54:52.025Z,46.10
2024-05-09T05:55:55.204Z,46.10
2024-05-09T05:56:59.661Z,46.10
2024-05-09T05:58:03.442Z,46.10
2024-05-09T05:59:06.633Z,46.00
2024-05-09T06:00:15.157Z,46.00
2024-05-09T06:01:21.344Z,46.00
2024-05-09T06:02:24.309Z,46.10
2024-05-09T06:03:29.316Z,46.10
2024-05-09T06:04:32.731Z,46.10
2024-05-09T06:05:38.694Z,46.00
2024-05-09T06:06:41.922Z,46.00
2024-05-09T06:07:45.013Z,46.10
2024-05-09T06:08:48.244Z,46.00
2024-05-09T06:09:51.348Z,46.00
2024-05-09T06:10:54.515Z,46.00
2024-05-09T06:11:57.868Z,46.00
2024-05-09T06:13:01.076Z,46.00
2024-05-09T06:14:05.515Z,46.10
2024-05-09T06:15:08.985Z,46.10
2024-05-09T06:16:12.110Z,46.10
2024-05-09T06:17:15.246Z,46.00
2024-05-09T06:18:19.864Z,46.00
2024-05-09T06:19:23.391Z,46.00
2024-05-09T06:20:35.464Z,46.10
2024-05-09T06:21:40.989Z,46.00
2024-05-09T06:22:44.151Z,46.00
2024-05-09T06:23:48.459Z,46.50
2024-05-09T06:24:51.580Z,46.00
2024-05-09T06:25:55.092Z,46.00
2024-05-09T06:26:59.282Z,46.00
2024-05-09T06:28:02.910Z,46.00
2024-05-09T06:29:06.361Z,46.00
2024-05-09T06:30:21.203Z,45.90
2024-05-09T06:31:31.879Z,45.90
2024-05-09T06:32:35.145Z,46.00
2024-05-09T06:33:41.942Z,46.00
2024-05-09T06:34:46.803Z,46.00
2024-05-09T06:35:50.047Z,45.90
2024-05-09T06:36:55.740Z,45.90
2024-05-09T06:37:58.997Z,45.90
2024-05-09T06:39:02.232Z,45.90
2024-05-09T06:40:07.386Z,46.00
2024-05-09T06:41:10.673Z,45.90
2024-05-09T06:42:13.801Z,46.00
2024-05-09T06:43:19.284Z,45.90
2024-05-09T06:44:23.705Z,46.00
2024-05-09T06:45:29.277Z,46.00
2024-05-09T06:46:34.784Z,46.00
2024-05-09T06:47:38.164Z,45.90
2024-05-09T06:48:43.339Z,46.00
2024-05-09T06:49:46.990Z,46.00
2024-05-09T06:50:50.822Z,45.90
2024-05-09T06:51:53.860Z,46.00
2024-05-09T06:52:57.008Z,46.00
2024-05-09T06:54:00.150Z,45.90
2024-05-09T06:55:03.263Z,46.00
2024-05-09T06:56:07.383Z,46.00
2024-05-09T06:57:13.709Z,46.00
2024-05-09T06:58:16.783Z,46.00
2024-05-09T06:59:20.108Z,46.00
2024-05-09T07:00:30.589Z,46.00
2024-05-09T07:01:41.190Z,45.90
2024-05-09T07:02:44.694Z,45.80
2024-05-09T07:03:49.376Z,45.60
2024-05-09T07:04:53.144Z,45.70
2024-05-09T07:05:56.403Z,45.70
2024-05-09T07:06:59.433Z,45.80
2024-05-09T07:08:02.489Z,45.50
2024-05-09T07:09:05.591Z,45.70
2024-05-09T07:10:12.241Z,45.70
2024-05-09T07:11:18.192Z,45.50
2024-05-09T07:12:21.247Z,45.40
2024-05-09T07:13:24.554Z,45.50
2024-05-09T07:14:28.983Z,45.60
2024-05-09T07:15:32.481Z,45.40
2024-05-09T07:16:36.101Z,45.70
2024-05-09T07:17:39.653Z,45.60
2024-05-09T07:18:43.207Z,45.60
2024-05-09T07:19:46.616Z,45.60
2024-05-09T07:20:50.669Z,45.80
2024-05-09T07:21:56.247Z,45.80
2024-05-09T07:22:59.278Z,45.80
2024-05-09T07:24:02.311Z,45.90
2024-05-09T07:25:06.744Z,45.90
2024-05-09T07:26:09.879Z,45.90
2024-05-09T07:27:12.872Z,45.80
2024-05-09T07:28:18.005Z,45.70
2024-05-09T07:29:21.109Z,45.80
2024-05-09T07:30:32.588Z,46.10
2024-05-09T07:31:37.386Z,46.00
2024-05-09T07:32:40.741Z,46.30
2024-05-09T07:33:44.054Z,46.10
2024-05-09T07:34:47.216Z,46.40
2024-05-09T07:35:50.445Z,46.40
2024-05-09T07:36:53.618Z,46.40
2024-05-09T07:37:57.138Z,46.40
2024-05-09T07:39:00.922Z,46.20
2024-05-09T07:40:07.465Z,46.10
2024-05-09T07:41:10.776Z,46.20
2024-05-09T07:42:13.862Z,46.30
2024-05-09T07:43:16.968Z,45.80
2024-05-09T07:44:20.189Z,45.80
2024-05-09T07:45:41.676Z,45.90
2024-05-09T07:47:48.495Z,45.90
2024-05-09T07:49:44.956Z,45.90
2024-05-09T07:53:17.374Z,45.90
2024-05-09T07:53:37.156Z,46.00
2024-05-09T07:54:35.854Z,45.50
2024-05-09T07:55:39.238Z,45.70
2024-05-09T07:56:42.618Z,45.90
2024-05-09T07:57:45.907Z,45.50
2024-05-09T07:58:51.131Z,45.70
2024-05-09T07:59:55.029Z,45.40
2024-05-09T08:00:58.626Z,45.30
2024-05-09T08:02:02.487Z,45.40
2024-05-09T08:03:06.131Z,45.70
2024-05-09T08:04:09.921Z,45.70
2024-05-09T08:05:14.707Z,45.80
2024-05-09T08:06:17.941Z,45.70
2024-05-09T08:07:22.282Z,45.50
2024-05-09T08:08:25.440Z,45.30
2024-05-09T08:09:28.720Z,45.40
2024-05-09T08:10:31.866Z,45.60
2024-05-09T08:11:38.443Z,45.60
2024-05-09T08:12:41.735Z,45.80
2024-05-09T08:13:47.153Z,45.70
2024-05-09T08:14:50.478Z,45.30
2024-05-09T08:15:56.433Z,45.60
2024-05-09T08:16:59.834Z,45.40
2024-05-09T08:18:03.202Z,45.40
2024-05-09T08:19:06.578Z,45.80
2024-05-09T08:20:11.411Z,45.20
2024-05-09T08:21:16.229Z,45.30
2024-05-09T08:22:19.544Z,45.20
2024-05-09T08:23:23.792Z,45.20
2024-05-09T08:24:28.090Z,45.10
2024-05-09T08:25:31.383Z,45.10
2024-05-09T08:26:34.784Z,45.10
2024-05-09T08:27:38.204Z,45.00
2024-05-09T08:28:41.367Z,45.10
2024-05-09T08:29:44.478Z,45.30
2024-05-09T08:30:47.916Z,45.20
2024-05-09T08:31:55.808Z,45.20
2024-05-09T08:32:59.100Z,44.90
2024-05-09T08:34:02.318Z,44.80
2024-05-09T08:35:06.335Z,44.80
2024-05-09T08:36:09.677Z,44.80
2024-05-09T08:37:19.685Z,44.90
2024-05-09T08:38:26.073Z,44.90
2024-05-09T08:39:29.475Z,45.10
2024-05-09T08:40:36.108Z,44.80
2024-05-09T08:41:43.718Z,45.10
2024-05-09T08:42:52.487Z,45.50
2024-05-09T08:43:57.261Z,45.60
2024-05-09T08:45:00.424Z,45.40
2024-05-09T08:46:07.915Z,45.40
2024-05-09T08:47:11.513Z,45.50
2024-05-09T08:48:16.110Z,45.50
2024-05-09T08:49:19.847Z,45.50
2024-05-09T08:50:31.747Z,45.50
2024-05-09T08:51:41.241Z,45.50
2024-05-09T08:52:44.791Z,45.50
2024-05-09T08:53:48.052Z,45.50
2024-05-09T08:54:51.204Z,45.40
2024-05-09T08:55:58.133Z,45.40
2024-05-09T08:57:01.876Z,45.40
2024-05-09T08:58:07.693Z,45.40
2024-05-09T08:59:18.125Z,45.30
2024-05-09T09:00:29.688Z,45.30
2024-05-09T09:01:42.556Z,45.20
2024-05-09T09:02:46.909Z,45.30
2024-05-09T09:03:53.599Z,45.10
2024-05-09T09:05:07.785Z,44.90
2024-05-09T09:06:14.563Z,44.90
2024-05-09T09:07:19.764Z,45.00
2024-05-09T09:08:26.811Z,45.00
2024-05-09T09:09:30.760Z,45.10
2024-05-09T09:10:34.023Z,45.00
2024-05-09T09:11:37.332Z,44.90
2024-05-09T09:12:41.169Z,43.20
2024-05-09T09:13:44.291Z,44.00
2024-05-09T09:14:49.833Z,43.70
2024-05-09T09:15:57.642Z,43.50
2024-05-09T09:17:02.195Z,41.60
2024-05-09T09:18:07.261Z,43.00
2024-05-09T09:19:12.104Z,43.10
2024-05-09T09:20:23.320Z,43.00
2024-05-09T09:21:32.353Z,43.00
2024-05-09T09:22:39.042Z,42.90
2024-05-09T09:23:45.094Z,43.30
2024-05-09T09:24:49.393Z,42.90
2024-05-09T09:25:52.576Z,42.80
2024-05-09T09:27:01.395Z,43.10
2024-05-09T09:28:04.778Z,43.20
2024-05-09T09:29:08.142Z,43.30
2024-05-09T09:30:27.281Z,42.10
2024-05-09T09:31:35.041Z,41.90
2024-05-09T09:32:43.552Z,41.70
2024-05-09T09:33:47.314Z,41.20
2024-05-09T09:34:50.666Z,41.50
2024-05-09T09:35:53.900Z,39.10
2024-05-09T09:37:10.715Z,40.60
2024-05-09T09:38:22.960Z,41.40
2024-05-09T09:39:28.681Z,41.10
2024-05-09T09:40:39.081Z,40.90
2024-05-09T09:41:49.013Z,41.10
2024-05-09T09:42:57.861Z,41.10
2024-05-09T09:44:02.135Z,40.90
2024-05-09T09:45:08.784Z,40.80
2024-05-09T09:46:15.411Z,40.50
2024-05-09T09:47:19.277Z,40.00
2024-05-09T09:48:23.589Z,40.10
2024-05-09T09:49:28.014Z,40.70
2024-05-09T09:50:34.812Z,40.10
2024-05-09T09:51:43.665Z,39.90
2024-05-09T09:52:48.064Z,40.50
2024-05-09T09:53:53.512Z,38.10
2024-05-09T09:54:57.702Z,38.20
2024-05-09T09:56:03.791Z,39.20
2024-05-09T09:57:08.772Z,40.30
2024-05-09T09:58:14.983Z,39.90
2024-05-09T09:59:18.855Z,39.70
2024-05-09T10:00:30.116Z,39.90
2024-05-09T10:01:36.494Z,38.50
2024-05-09T10:02:40.704Z,39.10
2024-05-09T10:03:48.385Z,38.30
2024-05-09T10:04:51.892Z,39.80
2024-05-09T10:06:03.520Z,39.50
2024-05-09T10:07:10.161Z,39.40
2024-05-09T10:08:14.263Z,39.70
2024-05-09T10:09:18.357Z,39.70
2024-05-09T10:10:31.950Z,40.40
2024-05-09T10:11:45.205Z,40.00
2024-05-09T10:13:08.693Z,39.30
2024-05-09T10:14:14.669Z,39.50
2024-05-09T10:15:20.288Z,40.20
2024-05-09T10:16:30.714Z,38.60
2024-05-09T10:17:34.300Z,40.20
2024-05-09T10:18:41.821Z,40.20
2024-05-09T10:19:45.626Z,38.90
2024-05-09T10:20:54.494Z,39.80
2024-05-09T10:22:05.957Z,39.60
2024-05-09T10:23:30.960Z,39.60
2024-05-09T10:25:07.498Z,40.10
2024-05-09T10:26:11.007Z,40.00
2024-05-09T10:27:14.098Z,40.20
2024-05-09T10:28:17.607Z,40.00
2024-05-09T10:29:20.949Z,40.20
2024-05-09T10:31:30.539Z,40.30
2024-05-09T10:32:40.542Z,39.70
2024-05-09T10:33:52.428Z,38.90
2024-05-09T10:35:02.111Z,39.20
2024-05-09T10:36:21.830Z,39.50
2024-05-09T10:37:26.699Z,39.70
2024-05-09T10:38:30.949Z,40.20
2024-05-09T10:39:39.955Z,40.40
2024-05-09T10:40:44.090Z,40.20
2024-05-09T10:41:47.529Z,39.70
2024-05-09T10:42:50.953Z,40.40
2024-05-09T10:43:54.023Z,40.10
2024-05-09T10:44:57.813Z,39.40
2024-05-09T10:46:01.105Z,39.40
2024-05-09T10:47:04.562Z,38.60
2024-05-09T10:48:09.156Z,39.30
2024-05-09T10:49:15.192Z,38.50
2024-05-09T10:50:25.483Z,37.90
2024-05-09T10:51:32.018Z,37.30
2024-05-09T10:52:41.220Z,37.50
2024-05-09T10:53:45.566Z,38.00
2024-05-09T10:54:54.988Z,38.50
2024-05-09T10:56:00.490Z,38.00
2024-05-09T10:57:03.630Z,38.20
2024-05-09T10:58:17.869Z,39.10
2024-05-09T10:59:21.369Z,38.60
2024-05-09T11:00:35.747Z,38.00
2024-05-09T11:01:40.780Z,39.10
2024-05-09T11:02:44.497Z,39.20
2024-05-09T11:03:52.929Z,39.70
2024-05-09T11:04:56.118Z,39.80
2024-05-09T11:05:59.711Z,39.50
2024-05-09T11:07:10.780Z,38.00
2024-05-09T11:08:14.268Z,38.70
2024-05-09T11:09:17.467Z,39.70
2024-05-09T11:10:27.631Z,39.20
2024-05-09T11:11:37.186Z,39.00
2024-05-09T11:12:45.842Z,39.50
2024-05-09T11:13:48.801Z,39.90
2024-05-09T11:14:55.018Z,39.70
2024-05-09T11:16:01.470Z,39.60
2024-05-09T11:17:08.771Z,39.50
2024-05-09T11:18:25.661Z,39.10
2024-05-09T11:19:31.587Z,39.50
2024-05-09T11:20:36.773Z,39.70
2024-05-09T11:21:40.615Z,39.40
2024-05-09T11:22:44.867Z,39.70
2024-05-09T11:23:48.108Z,39.80
2024-05-09T11:24:51.451Z,39.50
2024-05-09T11:25:58.873Z,39.50
2024-05-09T11:27:06.427Z,39.10
2024-05-09T11:28:09.502Z,39.00
2024-05-09T11:29:17.941Z,39.30
2024-05-09T11:30:29.765Z,39.50
2024-05-09T11:31:48.702Z,39.50
2024-05-09T11:32:55.642Z,38.50
2024-05-09T11:34:00.523Z,38.50
2024-05-09T11:35:04.296Z,39.00
2024-05-09T11:36:08.696Z,39.40
2024-05-09T11:37:13.763Z,39.20
2024-05-09T11:38:17.015Z,38.80
2024-05-09T11:39:20.169Z,39.20
2024-05-09T11:40:25.900Z,39.60
2024-05-09T11:41:36.019Z,40.10
2024-05-09T11:42:39.593Z,37.90
2024-05-09T11:43:42.744Z,38.00
2024-05-09T11:44:45.856Z,38.60
2024-05-09T11:45:49.048Z,39.00
2024-05-09T11:46:55.597Z,38.80
2024-05-09T11:47:59.094Z,39.10
2024-05-09T11:49:02.753Z,39.40
2024-05-09T11:50:08.237Z,38.80
2024-05-09T11:51:13.334Z,37.50
2024-05-09T11:52:25.456Z,38.40
2024-05-09T11:53:28.666Z,39.40
2024-05-09T11:54:31.782Z,38.80
2024-05-09T11:55:36.808Z,39.20
2024-05-09T11:56:43.402Z,39.20
2024-05-09T11:57:49.965Z,39.40
2024-05-09T11:58:53.532Z,39.00
2024-05-09T11:59:57.429Z,39.20
2024-05-09T12:01:04.458Z,39.50
2024-05-09T12:02:07.725Z,39.10
2024-05-09T12:03:11.014Z,38.80
2024-05-09T12:04:14.332Z,38.30
2024-05-09T12:05:21.336Z,38.80
2024-05-09T12:06:24.592Z,38.50
2024-05-09T12:07:27.867Z,38.90
2024-05-09T12:08:31.005Z,39.20
2024-05-09T12:09:34.471Z,39.60
2024-05-09T12:10:38.208Z,39.00
2024-05-09T12:11:41.460Z,38.60
2024-05-09T12:12:44.638Z,38.10
2024-05-09T12:13:47.976Z,38.80
2024-05-09T12:14:54.110Z,38.60
2024-05-09T12:16:00.264Z,37.80
2024-05-09T12:17:04.118Z,38.40
2024-05-09T12:18:08.358Z,37.70
2024-05-09T12:19:11.897Z,39.00
2024-05-09T12:20:25.055Z,39.50
2024-05-09T12:21:31.796Z,39.80
2024-05-09T12:22:34.931Z,38.90
2024-05-09T12:23:38.112Z,38.90
2024-05-09T12:24:41.242Z,38.40
2024-05-09T12:25:44.563Z,39.00
2024-05-09T12:26:48.236Z,39.70
2024-05-09T12:27:51.380Z,39.00
2024-05-09T12:28:54.828Z,37.50
2024-05-09T12:29:57.845Z,38.70
2024-05-09T12:31:03.608Z,37.70
2024-05-09T12:32:06.961Z,37.30
2024-05-09T12:33:12.544Z,37.50
2024-05-09T12:34:16.710Z,37.10
2024-05-09T12:35:20.267Z,37.20
2024-05-09T12:36:23.470Z,38.00
2024-05-09T12:37:26.962Z,38.50
2024-05-09T12:38:30.206Z,38.10
2024-05-09T12:39:33.384Z,37.90
2024-05-09T12:40:38.681Z,38.20
2024-05-09T12:41:46.165Z,37.80
2024-05-09T12:42:50.550Z,38.20
2024-05-09T12:43:54.257Z,37.50
2024-05-09T12:44:57.766Z,37.80
2024-05-09T12:46:01.648Z,38.80
2024-05-09T12:47:05.770Z,38.10
2024-05-09T12:48:13.186Z,38.10
2024-05-09T12:49:18.934Z,38.40
2024-05-09T12:50:29.893Z,38.10
2024-05-09T12:51:36.031Z,38.10
2024-05-09T12:52:39.149Z,37.80
2024-05-09T12:53:42.306Z,38.10
2024-05-09T12:54:45.339Z,37.10
2024-05-09T12:55:56.298Z,37.10
2024-05-09T12:57:03.871Z,37.40
2024-05-09T12:58:07.476Z,37.20
2024-05-09T12:59:10.848Z,37.30
2024-05-09T13:00:23.417Z,37.80
2024-05-09T13:01:31.265Z,37.90
2024-05-09T13:02:34.651Z,37.50
2024-05-09T13:03:38.034Z,38.20
2024-05-09T13:04:41.719Z,38.40
2024-05-09T13:05:45.819Z,38.30
2024-05-09T13:06:52.247Z,39.00
2024-05-09T13:07:56.822Z,39.20
2024-05-09T13:09:00.327Z,37.90
2024-05-09T13:10:05.721Z,37.90
2024-05-09T13:11:10.097Z,37.50
2024-05-09T13:12:13.290Z,37.90
2024-05-09T13:13:18.803Z,37.90
2024-05-09T13:14:21.964Z,38.30
2024-05-09T13:15:25.096Z,38.00
2024-05-09T13:16:28.412Z,38.50
2024-05-09T13:17:33.495Z,38.80
2024-05-09T13:18:41.275Z,38.70
2024-05-09T13:19:46.162Z,38.90
2024-05-09T13:20:49.184Z,39.40
2024-05-09T13:21:52.361Z,39.30
2024-05-09T13:22:55.369Z,38.90
2024-05-09T13:24:00.329Z,38.80
2024-05-09T13:25:03.701Z,38.50
2024-05-09T13:26:07.392Z,37.80
2024-05-09T13:27:10.582Z,37.90
2024-05-09T13:28:13.914Z,38.50
2024-05-09T13:29:17.153Z,38.70
2024-05-09T13:30:28.835Z,38.90
2024-05-09T13:31:39.261Z,38.40
2024-05-09T13:32:42.611Z,38.90
2024-05-09T13:33:45.997Z,39.30
2024-05-09T13:34:49.233Z,39.50
2024-05-09T13:35:52.422Z,39.40
2024-05-09T13:36:55.581Z,39.60
2024-05-09T13:37:58.878Z,39.10
2024-05-09T13:39:02.355Z,39.20
2024-05-09T13:40:07.456Z,39.20
2024-05-09T13:41:15.908Z,39.60
2024-05-09T13:42:19.303Z,39.40
2024-05-09T13:43:23.345Z,39.20
2024-05-09T13:44:26.431Z,38.20
2024-05-09T13:45:29.623Z,38.70
2024-05-09T13:46:34.181Z,37.00
2024-05-09T13:47:37.563Z,37.20
2024-05-09T13:48:40.889Z,37.50
2024-05-09T13:49:44.104Z,38.70
2024-05-09T13:50:47.334Z,38.40
2024-05-09T13:51:50.530Z,38.60
2024-05-09T13:52:53.557Z,38.10
2024-05-09T13:53:59.302Z,37.30
2024-05-09T13:55:02.499Z,37.70
2024-05-09T13:56:06.000Z,37.90
2024-05-09T13:57:09.660Z,38.80
2024-05-09T13:58:12.980Z,37.90
2024-05-09T13:59:16.094Z,37.30
2024-05-09T14:00:31.728Z,37.30
2024-05-09T14:01:42.330Z,37.70
2024-05-09T14:02:45.696Z,38.90
2024-05-09T14:03:49.040Z,38.60
2024-05-09T14:04:52.393Z,38.90
2024-05-09T14:05:56.017Z,39.10
2024-05-09T14:06:59.200Z,39.20
2024-05-09T14:08:02.378Z,39.20
2024-05-09T14:09:05.570Z,39.30